Time;durP1;ratioP1;P1;durP2;ratioP2;P2;SDS_P1;SDS_P2;PMS_P1;PMS_P2;Temp;Humidity;BMP_temperature;BMP_pressure;BME280_temperature;BME280_humidity;BME280_pressure;Samples;Min_cycle;Max_cycle;Signal;HPM_P1;HPM_P2
2021/07/22 00:02:05;;;;;;;9.53;7.93;;;20.20;99.90;;;;;;4919343;29;20528;-70
2021/07/22 00:04:32;;;;;;;9.80;7.93;;;20.20;99.90;;;;;;4918741;29;20461;-70
2021/07/22 00:06:59;;;;;;;8.93;8.03;;;20.20;1.00;;;;;;4918498;29;20461;-70
2021/07/22 00:09:27;;;;;;;8.70;7.40;;;20.20;99.90;;;;;;4920649;29;20774;-69
2021/07/22 00:11:54;;;;;;;9.37;7.87;;;20.20;1.00;;;;;;4922268;29;20965;-70
2021/07/22 00:14:20;;;;;;;9.40;7.97;;;20.20;1.00;;;;;;4922484;29;20465;-69
2021/07/22 00:16:47;;;;;;;11.73;8.10;;;20.20;1.00;;;;;;4922558;29;20465;-70
2021/07/22 00:19:14;;;;;;;13.80;8.27;;;20.20;1.00;;;;;;4926828;29;20476;-70
2021/07/22 00:21:41;;;;;;;10.43;7.90;;;20.10;1.00;;;;;;4929189;29;20476;-71
2021/07/22 00:24:07;;;;;;;10.33;8.60;;;20.10;1.00;;;;;;4923469;29;20497;-69
2021/07/22 00:26:38;;;;;;;8.97;7.63;;;20.20;1.00;;;;;;4923026;29;20833;-70
2021/07/22 00:29:05;;;;;;;10.43;7.23;;;20.20;1.00;;;;;;4923263;29;20450;-71
2021/07/22 00:31:33;;;;;;;11.33;7.90;;;20.20;1.00;;;;;;4922681;29;20836;-70
2021/07/22 00:33:59;;;;;;;11.00;8.13;;;20.20;1.00;;;;;;4922551;29;20461;-70
2021/07/22 00:36:26;;;;;;;10.27;7.60;;;20.20;99.90;;;;;;4922451;29;20478;-70
2021/07/22 00:38:53;;;;;;;11.60;8.13;;;20.20;99.90;;;;;;4922824;29;20465;-70
2021/07/22 00:41:19;;;;;;;9.53;7.07;;;20.20;99.90;;;;;;4922882;29;20493;-70
2021/07/22 00:43:47;;;;;;;10.47;7.40;;;20.20;99.90;;;;;;4922487;29;20469;-70
2021/07/22 00:46:15;;;;;;;8.00;7.20;;;20.10;99.90;;;;;;4922210;29;20461;-69
2021/07/22 00:48:42;;;;;;;9.70;7.33;;;20.10;1.00;;;;;;4922277;29;20528;-70
2021/07/22 00:51:09;;;;;;;8.60;7.30;;;20.10;1.00;;;;;;4922379;29;20461;-70
2021/07/22 00:53:36;;;;;;;13.33;7.30;;;20.10;1.00;;;;;;4922566;29;20484;-70
2021/07/22 00:56:03;;;;;;;14.00;7.60;;;20.10;1.00;;;;;;4922654;29;20483;-70
2021/07/22 00:58:29;;;;;;;8.77;7.77;;;20.00;1.00;;;;;;4922035;29;20465;-70
2021/07/22 01:00:57;;;;;;;9.57;7.67;;;20.00;1.00;;;;;;4921852;29;20848;-70
2021/07/22 01:03:24;;;;;;;9.00;7.40;;;20.00;1.00;;;;;;4921378;29;20544;-70
2021/07/22 01:05:51;;;;;;;10.37;7.53;;;20.00;1.00;;;;;;4921580;29;20472;-69
2021/07/22 01:08:18;;;;;;;8.40;7.50;;;20.00;1.00;;;;;;4921779;29;20469;-69
2021/07/22 01:10:44;;;;;;;10.00;7.80;;;19.90;1.00;;;;;;4921286;29;20473;-70
2021/07/22 01:13:11;;;;;;;8.93;7.60;;;19.90;1.00;;;;;;4921106;29;20497;-70
2021/07/22 01:15:38;;;;;;;9.13;7.57;;;19.90;1.00;;;;;;4921435;29;20473;-71
2021/07/22 01:18:06;;;;;;;10.77;6.70;;;19.90;1.00;;;;;;4922033;29;20808;-70
2021/07/22 01:20:34;;;;;;;11.03;7.57;;;19.90;1.00;;;;;;4920451;29;20489;-70
2021/07/22 01:23:00;;;;;;;12.50;7.90;;;19.90;1.00;;;;;;4921114;29;20465;-70
2021/07/22 01:25:29;;;;;;;9.10;7.57;;;19.80;1.00;;;;;;4921140;29;20466;-70
2021/07/22 01:27:57;;;;;;;8.50;6.27;;;19.80;1.00;;;;;;4920729;29;20469;-70
2021/07/22 01:30:23;;;;;;;8.83;7.23;;;19.80;1.00;;;;;;4920888;29;20469;-70
2021/07/22 01:32:52;;;;;;;9.87;7.90;;;19.80;1.00;;;;;;4921095;29;20821;-70
2021/07/22 01:35:19;;;;;;;11.70;7.60;;;19.90;1.00;;;;;;4920716;29;20469;-71
2021/07/22 01:37:49;;;;;;;11.47;7.77;;;19.90;1.00;;;;;;4920939;29;20472;-71
2021/07/22 01:40:17;;;;;;;7.70;6.53;;;19.80;1.00;;;;;;4920646;29;20478;-69
2021/07/22 01:42:44;;;;;;;10.57;7.87;;;19.90;1.00;;;;;;4920473;29;20465;-70
2021/07/22 01:45:12;;;;;;;10.03;7.53;;;19.90;1.00;;;;;;4921219;29;20461;-69
2021/07/22 01:47:39;;;;;;;8.97;7.63;;;19.90;1.00;;;;;;4920692;29;20835;-69
2021/07/22 01:50:07;;;;;;;11.97;8.07;;;19.80;1.00;;;;;;4921263;29;20465;-70
2021/07/22 01:52:34;;;;;;;9.67;7.30;;;19.80;1.00;;;;;;4920655;29;20461;-70
2021/07/22 01:55:02;;;;;;;11.30;7.83;;;19.70;1.00;;;;;;4920364;29;20469;-70
2021/07/22 01:57:31;;;;;;;9.03;7.67;;;19.70;1.00;;;;;;4920035;29;20476;-70
2021/07/22 02:00:04;;;;;;;9.40;7.50;;;19.70;1.00;;;;;;4920392;29;20477;-69
2021/07/22 02:02:31;;;;;;;12.20;7.80;;;19.70;1.00;;;;;;4920868;29;20437;-69
2021/07/22 02:04:58;;;;;;;10.77;7.40;;;19.60;1.00;;;;;;4920050;29;20464;-69
2021/07/22 02:07:25;;;;;;;10.63;7.97;;;19.60;1.00;;;;;;4920567;29;20910;-69
2021/07/22 02:09:51;;;;;;;9.40;7.83;;;19.60;1.00;;;;;;4920482;29;20472;-69
2021/07/22 02:12:20;;;;;;;9.97;7.30;;;19.60;1.00;;;;;;4919494;29;20485;-69
2021/07/22 02:14:50;;;;;;;9.10;7.90;;;19.60;1.00;;;;;;4920350;29;20468;-69
2021/07/22 02:17:17;;;;;;;9.53;7.53;;;19.60;1.00;;;;;;4920540;29;20468;-69
2021/07/22 02:19:44;;;;;;;8.97;7.17;;;19.60;1.00;;;;;;4920038;29;20457;-69
2021/07/22 02:22:11;;;;;;;10.27;8.20;;;19.60;1.00;;;;;;4920077;29;20517;-69
2021/07/22 02:24:37;;;;;;;9.53;6.70;;;19.60;1.00;;;;;;4920059;29;20462;-69
2021/07/22 02:27:04;;;;;;;11.13;7.70;;;19.60;1.00;;;;;;4920245;29;20497;-69
2021/07/22 02:29:32;;;;;;;8.23;6.90;;;19.60;1.00;;;;;;4919538;29;20465;-69
2021/07/22 02:31:59;;;;;;;12.03;6.67;;;19.60;1.00;;;;;;4919038;29;20466;-69
2021/07/22 02:34:26;;;;;;;9.90;7.20;;;19.60;1.00;;;;;;4920021;29;20469;-69
2021/07/22 02:36:52;;;;;;;12.43;7.17;;;19.60;1.00;;;;;;4920500;29;20465;-69
2021/07/22 02:39:19;;;;;;;10.53;8.03;;;19.70;1.00;;;;;;4919589;29;20497;-69
2021/07/22 02:41:46;;;;;;;11.97;7.63;;;19.70;1.00;;;;;;4919837;29;20783;-68
2021/07/22 02:44:12;;;;;;;9.53;7.90;;;19.70;1.00;;;;;;4919669;29;20477;-70
2021/07/22 02:46:40;;;;;;;9.60;7.30;;;19.60;1.00;;;;;;4919673;29;20473;-69
2021/07/22 02:49:07;;;;;;;11.30;7.30;;;19.60;1.00;;;;;;4919349;29;20819;-70
2021/07/22 02:51:34;;;;;;;11.60;7.40;;;19.60;1.00;;;;;;4919500;29;20469;-69
2021/07/22 02:54:00;;;;;;;8.33;7.40;;;19.60;1.00;;;;;;4919722;29;20462;-70
2021/07/22 02:56:27;;;;;;;8.63;6.93;;;19.50;1.00;;;;;;4919466;29;20918;-70
2021/07/22 02:58:54;;;;;;;9.07;6.83;;;19.50;1.00;;;;;;4919414;29;20472;-70
2021/07/22 03:01:20;;;;;;;8.77;6.73;;;19.50;1.00;;;;;;4919373;29;20492;-70
2021/07/22 03:03:48;;;;;;;8.37;7.10;;;19.50;1.00;;;;;;4919796;29;20580;-70
2021/07/22 03:06:16;;;;;;;9.27;7.50;;;19.50;1.00;;;;;;4919177;29;20465;-70
2021/07/22 03:08:43;;;;;;;7.90;6.80;;;19.50;1.00;;;;;;4918917;29;20511;-70
2021/07/22 03:11:10;;;;;;;10.30;7.17;;;19.40;1.00;;;;;;4919208;29;20469;-70
2021/07/22 03:13:37;;;;;;;8.37;7.20;;;19.40;1.00;;;;;;4919156;29;20457;-70
2021/07/22 03:16:05;;;;;;;10.60;7.53;;;19.40;1.00;;;;;;4919092;29;20473;-70
2021/07/22 03:18:32;;;;;;;10.70;7.53;;;19.40;1.00;;;;;;4919196;29;20834;-70
2021/07/22 03:21:01;;;;;;;11.70;8.00;;;19.40;1.00;;;;;;4919080;29;20485;-69
2021/07/22 03:23:28;;;;;;;10.10;7.87;;;19.40;1.00;;;;;;4919533;29;20465;-70
2021/07/22 03:25:54;;;;;;;8.63;7.20;;;19.40;1.00;;;;;;4919183;29;20462;-70
2021/07/22 03:28:21;;;;;;;8.80;7.50;;;19.30;1.00;;;;;;4918922;29;20466;-70
2021/07/22 03:30:48;;;;;;;13.33;9.47;;;19.30;1.00;;;;;;4918974;29;20465;-70
2021/07/22 03:33:14;;;;;;;9.80;7.80;;;19.30;1.00;;;;;;4918899;29;20831;-70
2021/07/22 03:35:42;;;;;;;10.63;8.23;;;19.30;1.00;;;;;;4918796;29;20462;-71
2021/07/22 03:38:10;;;;;;;10.97;7.80;;;19.30;1.00;;;;;;4918741;29;20998;-70
2021/07/22 03:40:37;;;;;;;10.60;8.30;;;19.30;1.00;;;;;;4918571;29;20529;-70
2021/07/22 03:43:04;;;;;;;9.60;8.20;;;19.30;1.00;;;;;;4918568;29;20838;-69
2021/07/22 03:45:30;;;;;;;11.17;7.73;;;19.30;1.00;;;;;;4919149;29;20465;-70
2021/07/22 03:48:00;;;;;;;10.97;7.80;;;19.30;1.00;;;;;;4918950;29;20818;-70
2021/07/22 03:50:27;;;;;;;13.70;8.43;;;19.30;1.00;;;;;;4918752;29;20465;-70
2021/07/22 03:52:55;;;;;;;10.53;7.77;;;19.30;1.00;;;;;;4918832;29;20843;-70
2021/07/22 03:55:27;;;;;;;17.30;10.00;;;19.30;1.00;;;;;;4919159;29;20887;-70
2021/07/22 03:57:56;;;;;;;14.07;6.83;;;19.30;1.00;;;;;;4918832;29;20762;-70
2021/07/22 04:00:25;;;;;;;13.23;7.90;;;19.30;1.00;;;;;;4918684;29;20465;-70
2021/07/22 04:03:01;;;;;;;10.57;8.23;;;19.30;1.00;;;;;;4918464;29;20520;-71
2021/07/22 04:05:28;;;;;;;10.50;8.47;;;19.30;1.00;;;;;;4918900;29;20546;-71
2021/07/22 04:07:56;;;;;;;9.70;8.23;;;19.30;1.00;;;;;;4918612;29;20466;-69
2021/07/22 04:10:25;;;;;;;11.23;8.53;;;19.20;1.00;;;;;;4918559;29;20489;-70
2021/07/22 04:12:56;;;;;;;9.77;8.77;;;19.20;1.00;;;;;;4918265;29;20548;-70
2021/07/22 04:15:24;;;;;;;12.07;9.13;;;19.20;1.00;;;;;;4918455;29;20552;-69
2021/07/22 04:17:50;;;;;;;13.13;8.30;;;19.20;1.00;;;;;;4918481;29;20496;-69
2021/07/22 04:20:17;;;;;;;10.50;8.63;;;19.20;1.00;;;;;;4918468;29;20776;-70
2021/07/22 04:22:44;;;;;;;11.13;9.00;;;19.20;1.00;;;;;;4918087;29;20818;-70
2021/07/22 04:25:11;;;;;;;13.70;10.30;;;19.30;1.00;;;;;;4918524;29;20529;-70
2021/07/22 04:27:40;;;;;;;13.53;9.43;;;19.30;1.00;;;;;;4918456;29;20508;-69
2021/07/22 04:30:08;;;;;;;17.10;10.13;;;19.40;1.00;;;;;;4918397;29;20939;-69
2021/07/22 04:32:35;;;;;;;12.20;8.47;;;19.40;1.00;;;;;;4918232;29;20461;-70
2021/07/22 04:35:02;;;;;;;13.93;9.00;;;19.50;1.00;;;;;;4918430;29;20473;-70
2021/07/22 04:37:28;;;;;;;11.10;9.00;;;19.50;1.00;;;;;;4917861;29;20465;-71
2021/07/22 04:39:55;;;;;;;12.53;9.23;;;19.50;1.00;;;;;;4918441;29;20476;-69
2021/07/22 04:42:22;;;;;;;16.33;10.20;;;19.50;1.00;;;;;;4918130;29;20485;-69
2021/07/22 04:44:50;;;;;;;10.20;8.53;;;19.50;1.00;;;;;;4918082;29;20467;-70
2021/07/22 04:47:16;;;;;;;12.63;10.17;;;19.50;1.00;;;;;;4918181;29;20922;-70
2021/07/22 04:49:43;;;;;;;11.60;9.97;;;19.50;1.00;;;;;;4918325;29;20469;-70
2021/07/22 04:52:10;;;;;;;11.33;9.50;;;19.50;1.00;;;;;;4918216;29;20839;-70
2021/07/22 04:54:36;;;;;;;12.30;9.67;;;19.50;1.00;;;;;;4918678;29;20469;-70
2021/07/22 04:57:03;;;;;;;10.53;9.17;;;19.50;1.00;;;;;;4921422;29;20465;-70
2021/07/22 04:59:30;;;;;;;15.60;9.60;;;19.50;1.00;;;;;;4921441;29;20619;-70
2021/07/22 05:01:58;;;;;;;11.27;9.57;;;19.60;1.00;;;;;;4921407;29;20855;-70
2021/07/22 05:04:25;;;;;;;13.10;8.20;;;19.60;1.00;;;;;;4921503;29;20465;-70
2021/07/22 05:06:51;;;;;;;10.83;8.57;;;19.60;1.00;;;;;;4921108;29;20461;-69
2021/07/22 05:09:18;;;;;;;11.60;8.70;;;19.60;1.00;;;;;;4921379;29;20469;-69
2021/07/22 05:11:45;;;;;;;12.30;8.10;;;19.70;1.00;;;;;;4921058;29;20485;-69
2021/07/22 05:14:11;;;;;;;10.17;8.60;;;19.70;1.00;;;;;;4921131;29;20449;-69
2021/07/22 05:16:38;;;;;;;11.77;7.87;;;19.80;1.00;;;;;;4921336;29;20827;-70
2021/07/22 05:19:06;;;;;;;10.20;8.97;;;19.80;1.00;;;;;;4921129;29;20470;-68
2021/07/22 05:21:33;;;;;;;10.97;8.57;;;19.80;1.00;;;;;;4920799;29;20489;-70
2021/07/22 05:23:59;;;;;;;11.23;9.10;;;19.80;1.00;;;;;;4921347;29;20472;-70
2021/07/22 05:26:26;;;;;;;12.10;8.70;;;19.90;1.00;;;;;;4920862;29;20767;-70
2021/07/22 05:28:53;;;;;;;10.43;9.00;;;19.80;1.00;;;;;;4920961;29;20464;-70
2021/07/22 05:31:19;;;;;;;9.20;8.20;;;19.90;1.00;;;;;;4920962;29;20461;-70
2021/07/22 05:33:46;;;;;;;9.03;8.10;;;19.90;1.00;;;;;;4921294;29;20465;-70
2021/07/22 05:36:14;;;;;;;12.50;8.83;;;19.90;1.00;;;;;;4921326;29;20473;-70
2021/07/22 05:38:41;;;;;;;10.47;8.60;;;19.90;1.00;;;;;;4920758;29;20472;-68
2021/07/22 05:41:15;;;;;;;11.10;9.10;;;20.00;1.00;;;;;;4920932;29;20520;-70
2021/07/22 05:43:42;;;;;;;10.13;8.93;;;20.00;1.00;;;;;;4921418;29;20485;-70
2021/07/22 05:46:09;;;;;;;10.67;8.13;;;20.00;99.90;;;;;;4921143;29;20528;-70
2021/07/22 05:48:36;;;;;;;10.27;8.13;;;20.10;99.90;;;;;;4921278;29;20922;-70
2021/07/22 05:51:04;;;;;;;11.37;8.07;;;20.20;99.90;;;;;;4920522;29;20465;-69
2021/07/22 05:53:33;;;;;;;8.50;7.60;;;20.30;1.00;;;;;;4921884;29;20540;-69
2021/07/22 05:56:00;;;;;;;9.40;7.40;;;20.30;1.00;;;;;;4922106;29;20534;-69
2021/07/22 05:58:27;;;;;;;31.13;24.40;;;20.50;1.00;;;;;;4922303;29;20500;-69
2021/07/22 06:00:54;;;;;;;85.70;61.57;;;20.60;1.00;;;;;;4922061;29;20461;-69
2021/07/22 06:03:21;;;;;;;11.70;8.47;;;20.70;99.90;;;;;;4922219;29;20485;-69
2021/07/22 06:05:48;;;;;;;8.43;7.03;;;20.80;1.00;;;;;;4921923;29;20469;-69
2021/07/22 06:08:15;;;;;;;10.30;6.90;;;20.90;1.00;;;;;;4922465;29;20466;-69
2021/07/22 06:10:43;;;;;;;9.47;6.93;;;21.00;99.90;;;;;;4921901;29;20465;-69
2021/07/22 06:13:10;;;;;;;7.10;6.40;;;21.00;99.90;;;;;;4920430;29;20485;-69
2021/07/22 06:15:36;;;;;;;11.07;7.30;;;21.00;99.90;;;;;;4921468;29;20934;-68
2021/07/22 06:18:03;;;;;;;8.10;6.70;;;21.10;99.90;;;;;;4921209;29;20468;-69
2021/07/22 06:20:30;;;;;;;9.33;7.20;;;21.10;35.30;;;;;;4921760;29;20477;-69
2021/07/22 06:22:57;;;;;;;9.07;7.30;;;21.20;99.90;;;;;;4921114;29;20496;-69
2021/07/22 06:25:24;;;;;;;8.70;7.80;;;21.30;99.90;;;;;;4920359;29;20465;-72
2021/07/22 06:27:52;;;;;;;10.37;7.40;;;21.40;99.90;;;;;;4920264;29;20851;-69
2021/07/22 06:30:19;;;;;;;8.10;7.30;;;21.50;1.00;;;;;;4920231;29;20488;-68
2021/07/22 06:32:45;;;;;;;7.83;6.20;;;21.60;1.00;;;;;;4919756;29;20469;-69
2021/07/22 06:35:12;;;;;;;8.70;7.60;;;21.70;99.90;;;;;;4919985;29;20784;-69
2021/07/22 06:37:46;;;;;;;7.80;6.97;;;21.80;99.90;;;;;;4920102;29;20461;-71
2021/07/22 06:40:13;;;;;;;7.43;6.60;;;21.90;49.40;;;;;;4920332;29;20513;-69
2021/07/22 06:42:40;;;;;;;9.17;7.00;;;21.90;1.00;;;;;;4919783;29;20548;-70
2021/07/22 06:45:09;;;;;;;8.53;7.47;;;22.00;1.00;;;;;;4919744;29;20465;-69
2021/07/22 06:47:38;;;;;;;8.57;7.77;;;22.00;1.00;;;;;;4919414;29;20477;-69
2021/07/22 06:50:07;;;;;;;7.80;7.00;;;22.00;1.00;;;;;;4919463;29;20492;-69
2021/07/22 06:52:35;;;;;;;7.63;6.83;;;21.90;99.90;;;;;;4919204;29;20465;-69
2021/07/22 06:55:02;;;;;;;8.83;6.73;;;21.80;1.00;;;;;;4919214;29;20762;-69
2021/07/22 06:57:37;;;;;;;7.80;7.00;;;21.90;1.00;;;;;;4919769;29;20472;-69
2021/07/22 07:00:04;;;;;;;10.10;6.83;;;21.90;1.00;;;;;;4919719;29;20444;-69
2021/07/22 07:02:32;;;;;;;7.63;6.77;;;21.90;99.90;;;;;;4920426;29;20585;-69
2021/07/22 07:04:59;;;;;;;7.57;6.63;;;21.90;99.90;;;;;;4920400;29;20461;-68
2021/07/22 07:07:26;;;;;;;8.23;6.50;;;21.90;1.00;;;;;;4920733;29;20469;-69
2021/07/22 07:09:53;;;;;;;8.20;6.50;;;21.90;1.00;;;;;;4921188;29;20521;-68
2021/07/22 07:12:20;;;;;;;9.37;7.63;;;21.90;1.00;;;;;;4919884;29;20517;-70
2021/07/22 07:14:46;;;;;;;9.80;7.77;;;21.90;1.00;;;;;;4920288;29;20476;-69
2021/07/22 07:17:13;;;;;;;7.30;6.60;;;21.90;1.00;;;;;;4919099;29;20525;-69
2021/07/22 07:19:41;;;;;;;6.93;6.23;;;21.80;1.00;;;;;;4919486;29;20469;-69
2021/07/22 07:22:08;;;;;;;9.03;7.07;;;21.80;1.00;;;;;;4919107;29;20512;-70
2021/07/22 07:24:35;;;;;;;12.40;7.70;;;21.80;1.00;;;;;;4919076;29;20476;-70
2021/07/22 07:27:02;;;;;;;17.67;7.43;;;21.80;1.00;;;;;;4919075;29;20565;-69
2021/07/22 07:29:28;;;;;;;7.60;6.80;;;21.80;1.00;;;;;;4920030;29;20480;-69
2021/07/22 07:31:59;;;;;;;8.17;6.37;;;21.80;1.00;;;;;;4919753;29;20457;-69
2021/07/22 07:34:26;;;;;;;14.43;7.03;;;21.80;1.00;;;;;;4921245;29;20445;-69
2021/07/22 07:36:54;;;;;;;16.80;8.00;;;21.80;1.00;;;;;;4919859;29;21022;-71
2021/07/22 07:39:21;;;;;;;9.87;7.50;;;21.80;1.00;;;;;;4918714;29;20470;-71
2021/07/22 07:41:48;;;;;;;20.53;6.70;;;21.80;1.00;;;;;;4918707;29;20465;-72
2021/07/22 07:44:15;;;;;;;7.67;6.50;;;21.80;1.00;;;;;;4918948;29;20492;-71
2021/07/22 07:46:41;;;;;;;8.53;6.47;;;21.70;1.00;;;;;;4918615;29;20473;-71
2021/07/22 07:49:08;;;;;;;8.90;7.53;;;21.80;1.00;;;;;;4918488;29;20469;-71
2021/07/22 07:51:35;;;;;;;8.40;6.93;;;21.80;1.00;;;;;;4918656;29;20461;-71
2021/07/22 07:54:06;;;;;;;9.33;7.53;;;21.80;1.00;;;;;;4919391;29;20532;-71
2021/07/22 07:56:33;;;;;;;8.20;6.53;;;21.80;1.00;;;;;;4919787;29;20481;-69
2021/07/22 07:59:00;;;;;;;11.17;6.43;;;21.90;1.00;;;;;;4919376;29;20465;-70
2021/07/22 08:01:29;;;;;;;7.07;6.00;;;21.90;1.00;;;;;;4918569;29;20466;-70
2021/07/22 08:03:56;;;;;;;8.27;6.93;;;21.90;1.00;;;;;;4918615;29;20538;-69
2021/07/22 08:06:23;;;;;;;9.00;7.13;;;22.00;1.00;;;;;;4918781;29;20520;-69
2021/07/22 08:08:49;;;;;;;7.10;6.40;;;22.10;1.00;;;;;;4918445;29;20472;-69
2021/07/22 08:11:18;;;;;;;8.40;6.87;;;22.10;1.00;;;;;;4918005;29;20895;-70
2021/07/22 08:13:44;;;;;;;11.80;7.50;;;22.10;99.90;;;;;;4918614;29;20844;-70
2021/07/22 08:16:16;;;;;;;10.73;7.33;;;22.10;99.90;;;;;;4918875;29;20942;-70
2021/07/22 08:18:44;;;;;;;9.73;6.60;;;22.20;99.90;;;;;;4918645;29;20756;-70
2021/07/22 08:21:11;;;;;;;9.27;7.13;;;22.20;99.90;;;;;;4919207;29;20481;-70
2021/07/22 08:23:43;;;;;;;10.37;7.13;;;22.30;99.90;;;;;;4920191;29;20485;-68
2021/07/22 08:26:10;;;;;;;7.47;6.20;;;22.50;99.90;;;;;;4920986;29;20441;-70
2021/07/22 08:28:38;;;;;;;7.30;6.37;;;22.60;99.90;;;;;;4918409;29;20493;-70
2021/07/22 08:31:08;;;;;;;8.67;7.27;;;22.60;99.90;;;;;;4921298;29;20475;-69
2021/07/22 08:33:34;;;;;;;11.00;7.30;;;22.50;99.90;;;;;;4922118;29;20558;-70
2021/07/22 08:36:01;;;;;;;8.77;7.20;;;22.50;99.90;;;;;;4922414;29;20462;-70
2021/07/22 08:38:29;;;;;;;8.40;6.77;;;22.50;99.90;;;;;;4926934;29;20462;-69
2021/07/22 08:40:58;;;;;;;8.07;6.73;;;22.50;99.90;;;;;;4924154;29;20496;-69
2021/07/22 08:43:28;;;;;;;8.67;6.20;;;22.50;72.50;;;;;;4925257;29;20485;-69
2021/07/22 08:45:57;;;;;;;9.00;6.60;;;22.50;53.70;;;;;;4926420;29;20842;-71
2021/07/22 08:48:24;;;;;;;7.60;6.80;;;22.60;13.40;;;;;;4926152;29;20830;-69
2021/07/22 08:50:51;;;;;;;8.30;6.30;;;22.70;11.10;;;;;;4927581;29;20465;-70
2021/07/22 08:53:22;;;;;;;8.27;7.10;;;22.90;18.60;;;;;;4927457;29;20461;-69
2021/07/22 08:55:49;;;;;;;10.00;5.93;;;23.00;1.00;;;;;;4925332;29;20458;-70
2021/07/22 08:58:16;;;;;;;9.30;6.20;;;23.10;1.00;;;;;;4922869;29;20472;-69
2021/07/22 09:00:46;;;;;;;7.20;6.37;;;23.30;1.00;;;;;;4922777;29;20469;-68
2021/07/22 09:03:15;;;;;;;7.33;6.07;;;23.40;1.00;;;;;;4926753;29;20975;-70
2021/07/22 09:05:43;;;;;;;5.60;4.97;;;23.50;30.60;;;;;;4923885;29;20591;-70
2021/07/22 09:08:10;;;;;;;8.33;5.87;;;23.50;99.90;;;;;;4925122;29;20480;-70
2021/07/22 09:10:36;;;;;;;6.57;5.73;;;23.40;50.60;;;;;;4921451;29;20473;-70
2021/07/22 09:13:03;;;;;;;7.53;6.60;;;23.40;99.90;;;;;;4920759;29;20500;-71
2021/07/22 09:15:33;;;;;;;7.57;5.90;;;23.30;1.00;;;;;;4921269;29;20488;-70
2021/07/22 09:18:00;;;;;;;7.50;6.73;;;23.30;1.00;;;;;;4921252;29;20457;-70
2021/07/22 09:20:32;;;;;;;6.60;5.83;;;23.30;1.00;;;;;;4921113;29;20469;-72
2021/07/22 09:23:00;;;;;;;7.40;6.20;;;23.30;1.00;;;;;;4920892;29;20856;-70
2021/07/22 09:25:44;;;;;;;8.27;5.80;;;23.30;1.00;;;;;;4921067;29;20506;-70
2021/07/22 09:28:13;;;;;;;7.67;6.90;;;23.30;1.00;;;;;;4920867;29;20465;-69
2021/07/22 09:30:53;;;;;;;8.30;6.53;;;23.30;1.00;;;;;;4921075;29;20508;-69
2021/07/22 09:33:33;;;;;;;10.37;6.23;;;23.30;1.00;;;;;;4921089;29;20445;-70
2021/07/22 09:36:01;;;;;;;7.40;6.07;;;23.30;1.00;;;;;;4920974;29;20481;-70
2021/07/22 09:38:28;;;;;;;9.10;6.10;;;23.40;1.00;;;;;;4921147;29;20465;-70
2021/07/22 09:40:55;;;;;;;15.00;10.10;;;23.50;1.00;;;;;;4920518;29;20536;-70
2021/07/22 09:43:36;;;;;;;9.00;7.20;;;23.60;1.00;;;;;;4920569;29;20485;-70
2021/07/22 09:46:03;;;;;;;7.77;6.40;;;23.60;1.00;;;;;;4920464;29;20508;-70
2021/07/22 09:48:30;;;;;;;7.53;6.27;;;23.60;1.00;;;;;;4920620;29;20465;-71
2021/07/22 09:50:56;;;;;;;7.80;6.63;;;23.70;1.00;;;;;;4920325;29;20516;-71
2021/07/22 09:53:27;;;;;;;7.20;5.93;;;23.80;1.00;;;;;;4920637;29;20936;-71
2021/07/22 09:55:55;;;;;;;8.93;6.53;;;24.00;1.00;;;;;;4920502;29;20465;-71
2021/07/22 09:58:22;;;;;;;11.23;5.90;;;24.00;1.00;;;;;;4920324;29;20472;-70
2021/07/22 10:00:51;;;;;;;9.57;6.30;;;24.00;1.00;;;;;;4920477;29;20465;-70
2021/07/22 10:03:20;;;;;;;11.30;5.80;;;23.80;1.00;;;;;;4920266;29;20496;-70
2021/07/22 10:05:48;;;;;;;9.93;6.07;;;23.70;1.00;;;;;;4920107;29;20473;-71
2021/07/22 10:08:18;;;;;;;8.33;6.37;;;23.60;1.00;;;;;;4919780;29;20473;-71
2021/07/22 10:10:51;;;;;;;8.77;6.07;;;23.50;1.00;;;;;;4920694;29;20851;-71
2021/07/22 10:13:22;;;;;;;12.20;6.17;;;23.40;1.00;;;;;;4920172;29;20854;-71
2021/07/22 10:15:50;;;;;;;7.87;6.47;;;23.30;1.00;;;;;;4920341;29;20458;-70
2021/07/22 10:18:23;;;;;;;8.60;6.50;;;23.20;1.00;;;;;;4920522;29;20796;-70
2021/07/22 10:20:52;;;;;;;8.80;6.90;;;23.20;1.00;;;;;;4921462;29;20518;-71
2021/07/22 10:23:19;;;;;;;7.47;6.47;;;23.10;1.00;;;;;;4921682;29;20489;-70
2021/07/22 10:25:48;;;;;;;9.83;7.33;;;23.00;1.00;;;;;;4923313;29;20501;-71
2021/07/22 10:28:16;;;;;;;9.97;7.13;;;23.00;1.00;;;;;;4922331;29;20461;-71
2021/07/22 10:30:45;;;;;;;7.30;6.20;;;23.00;1.00;;;;;;4920559;29;20541;-71
2021/07/22 10:33:15;;;;;;;8.23;6.27;;;23.00;1.00;;;;;;4921297;29;20473;-69
2021/07/22 10:35:42;;;;;;;7.03;6.33;;;23.00;1.00;;;;;;4920328;29;20459;-70
2021/07/22 10:38:11;;;;;;;10.87;6.70;;;23.00;1.00;;;;;;4920090;29;20468;-71
2021/07/22 10:40:44;;;;;;;8.90;6.23;;;23.00;1.00;;;;;;4922076;29;20525;-70
2021/07/22 10:43:37;;;;;;;8.13;6.40;;;23.00;1.00;;;;;;4921717;29;20496;-69
2021/07/22 10:46:04;;;;;;;5.63;5.10;;;23.00;1.00;;;;;;4920323;29;20883;-69
2021/07/22 10:48:31;;;;;;;9.37;6.10;;;23.00;1.00;;;;;;4920067;29;20461;-70
2021/07/22 10:51:14;;;;;;;6.80;6.10;;;23.00;1.00;;;;;;4920485;29;20517;-70
2021/07/22 10:53:51;;;;;;;12.43;6.77;;;23.10;1.00;;;;;;4920076;29;20481;-70
2021/07/22 10:56:51;;;;;;;8.70;5.53;;;23.10;1.00;;;;;;4920456;29;20460;-70
2021/07/22 10:59:19;;;;;;;7.07;6.30;;;23.10;1.00;;;;;;4915734;29;20457;-70
2021/07/22 11:01:58;;;;;;;6.80;5.77;;;23.10;1.00;;;;;;4921604;29;20461;-70
2021/07/22 11:04:45;;;;;;;8.07;6.10;;;23.20;1.00;;;;;;4922597;29;20480;-70
2021/07/22 11:07:26;;;;;;;8.70;7.20;;;23.40;1.00;;;;;;4923123;29;20798;-71
2021/07/22 11:09:59;;;;;;;7.80;6.20;;;23.40;1.00;;;;;;4923605;29;20897;-70
2021/07/22 11:12:47;;;;;;;10.00;6.17;;;23.30;1.00;;;;;;4922476;29;20501;-70
2021/07/22 11:15:39;;;;;;;8.50;6.50;;;23.30;1.00;;;;;;4922546;29;20446;-70
2021/07/22 11:18:39;;;;;;;9.80;7.33;;;23.40;1.00;;;;;;4925908;29;20531;-70
2021/07/22 11:21:06;;;;;;;7.23;6.43;;;23.40;1.00;;;;;;4926960;29;20437;-70
2021/07/22 11:23:33;;;;;;;7.73;6.20;;;23.50;1.00;;;;;;4927297;29;20493;-70
2021/07/22 11:26:00;;;;;;;8.20;7.37;;;23.50;1.00;;;;;;4927916;29;20461;-71
2021/07/22 11:28:28;;;;;;;7.70;6.53;;;23.60;1.00;;;;;;4926232;29;20465;-70
2021/07/22 11:31:09;;;;;;;7.43;6.20;;;23.50;1.00;;;;;;4923831;29;20461;-71
2021/07/22 11:33:37;;;;;;;9.60;6.60;;;23.50;1.00;;;;;;4926821;29;20468;-70
2021/07/22 11:36:06;;;;;;;7.43;6.30;;;23.50;1.00;;;;;;4930154;29;20521;-69
2021/07/22 11:38:33;;;;;;;7.83;6.53;;;23.40;1.00;;;;;;4931578;29;20458;-71
2021/07/22 11:41:00;;;;;;;8.37;6.50;;;23.30;1.00;;;;;;4923131;29;20465;-70
2021/07/22 11:43:38;;;;;;;8.53;6.30;;;23.20;1.00;;;;;;4921199;29;20481;-70
2021/07/22 11:46:08;;;;;;;7.00;6.30;;;23.10;1.00;;;;;;4920280;29;20472;-71
2021/07/22 11:48:35;;;;;;;8.77;6.97;;;23.10;1.00;;;;;;4922981;29;20461;-70
2021/07/22 11:51:05;;;;;;;10.80;6.53;;;23.20;1.00;;;;;;4921815;29;20800;-70
2021/07/22 11:53:33;;;;;;;9.33;6.17;;;23.10;1.00;;;;;;4920361;29;20450;-70
2021/07/22 11:56:08;;;;;;;8.77;7.57;;;23.10;1.00;;;;;;4919560;29;20461;-70
2021/07/22 11:58:35;;;;;;;10.37;6.50;;;23.10;1.00;;;;;;4918994;29;20445;-70
2021/07/22 12:01:02;;;;;;;6.47;5.87;;;23.10;1.00;;;;;;4918494;29;20461;-70
2021/07/22 12:03:31;;;;;;;8.93;8.03;;;23.20;1.00;;;;;;4918822;29;20461;-70
2021/07/22 12:05:58;;;;;;;8.97;6.60;;;23.30;1.00;;;;;;4923045;29;20461;-70
2021/07/22 12:08:25;;;;;;;6.97;6.27;;;23.40;1.00;;;;;;4923011;29;20750;-70
2021/07/22 12:10:59;;;;;;;14.50;6.87;;;23.50;1.00;;;;;;4922490;29;20618;-71
2021/07/22 12:13:26;;;;;;;8.13;6.47;;;23.60;1.00;;;;;;4923609;29;20484;-70
2021/07/22 12:15:53;;;;;;;8.93;7.13;;;23.60;1.00;;;;;;4923108;29;20786;-69
2021/07/22 12:18:22;;;;;;;8.80;7.30;;;23.60;1.00;;;;;;4923595;29;20497;-69
2021/07/22 12:20:51;;;;;;;7.83;6.93;;;23.60;1.00;;;;;;4922783;29;20501;-71
2021/07/22 12:23:32;;;;;;;7.87;6.97;;;23.60;1.00;;;;;;4923527;29;20949;-70
2021/07/22 12:26:00;;;;;;;8.73;7.20;;;23.50;1.00;;;;;;4922417;29;20476;-70
2021/07/22 12:28:27;;;;;;;8.00;7.13;;;23.50;1.00;;;;;;4922409;29;20528;-70
2021/07/22 12:30:54;;;;;;;10.57;7.60;;;23.40;1.00;;;;;;4922206;29;20465;-69
2021/07/22 12:33:26;;;;;;;8.10;6.80;;;23.30;1.00;;;;;;4921908;29;20461;-70
2021/07/22 12:35:55;;;;;;;7.53;6.73;;;23.20;1.00;;;;;;4922400;29;20469;-69
2021/07/22 12:38:27;;;;;;;10.37;7.30;;;23.10;1.00;;;;;;4921973;29;20469;-69
2021/07/22 12:41:09;;;;;;;10.63;7.50;;;23.00;1.00;;;;;;4922268;29;20461;-69
2021/07/22 12:43:48;;;;;;;11.50;7.97;;;23.00;1.00;;;;;;4921815;29;20449;-69
2021/07/22 12:46:16;;;;;;;8.93;7.43;;;22.90;1.00;;;;;;4921987;29;20528;-70
2021/07/22 12:48:43;;;;;;;8.40;6.77;;;22.80;1.00;;;;;;4922183;29;20846;-69
2021/07/22 12:51:12;;;;;;;8.10;7.30;;;22.80;1.00;;;;;;4921821;29;20769;-69
2021/07/22 12:53:40;;;;;;;9.23;7.40;;;22.80;1.00;;;;;;4921749;29;20469;-71
2021/07/22 12:56:07;;;;;;;7.93;7.13;;;22.90;1.00;;;;;;4921755;29;20804;-70
2021/07/22 12:58:37;;;;;;;8.80;7.10;;;23.00;1.00;;;;;;4922168;29;20476;-70